sensor_id;sensor_type;location;lat;lon;timestamp;temperature;humidity
51035;DHT22;37062;52.546;13.230;2022-07-17T00:01:45;15.70;99.90
51035;DHT22;37062;52.546;13.230;2022-07-17T00:04:12;15.70;99.90
51035;DHT22;37062;52.546;13.230;2022-07-17T00:06:39;15.60;99.90
51035;DHT22;37062;52.546;13.230;2022-07-17T00:09:06;15.60;99.90
51035;DHT22;37062;52.546;13.230;2022-07-17T00:11:33;15.60;99.90
51035;DHT22;37062;52.546;13.230;2022-07-17T00:14:01;15.50;99.90
51035;DHT22;37062;52.546;13.230;2022-07-17T00:16:28;15.50;99.90
51035;DHT22;37062;52.546;13.230;2022-07-17T00:18:55;15.50;99.90
51035;DHT22;37062;52.546;13.230;2022-07-17T00:21:22;15.50;99.90
51035;DHT22;37062;52.546;13.230;2022-07-17T00:23:50;15.50;99.90
51035;DHT22;37062;52.546;13.230;2022-07-17T00:26:17;15.40;99.90
51035;DHT22;37062;52.546;13.230;2022-07-17T00:28:44;15.40;99.90
51035;DHT22;37062;52.546;13.230;2022-07-17T00:31:12;15.40;99.90
51035;DHT22;37062;52.546;13.230;2022-07-17T00:33:39;15.40;99.90
51035;DHT22;37062;52.546;13.230;2022-07-17T00:36:07;15.40;99.90
51035;DHT22;37062;52.546;13.230;2022-07-17T00:38:34;15.30;99.90
51035;DHT22;37062;52.546;13.230;2022-07-17T00:41:03;15.30;99.90
51035;DHT22;37062;52.546;13.230;2022-07-17T00:43:30;15.30;99.90
51035;DHT22;37062;52.546;13.230;2022-07-17T00:45:59;15.20;99.90
51035;DHT22;37062;52.546;13.230;2022-07-17T00:48:30;15.30;99.90
51035;DHT22;37062;52.546;13.230;2022-07-17T00:50:58;15.30;99.90
51035;DHT22;37062;52.546;13.230;2022-07-17T00:53:25;15.20;99.90
51035;DHT22;37062;52.546;13.230;2022-07-17T00:55:52;15.20;99.90
51035;DHT22;37062;52.546;13.230;2022-07-17T00:58:22;15.20;99.90
51035;DHT22;37062;52.546;13.230;2022-07-17T01:00:50;15.10;99.90
51035;DHT22;37062;52.546;13.230;2022-07-17T01:03:22;15.10;99.90
51035;DHT22;37062;52.546;13.230;2022-07-17T01:05:51;15.00;99.90
51035;DHT22;37062;52.546;13.230;2022-07-17T01:08:18;15.00;99.90
51035;DHT22;37062;52.546;13.230;2022-07-17T01:10:45;15.00;99.90
51035;DHT22;37062;52.546;13.230;2022-07-17T01:13:12;15.00;99.90
51035;DHT22;37062;52.546;13.230;2022-07-17T01:15:41;14.90;99.90
51035;DHT22;37062;52.546;13.230;2022-07-17T01:18:09;14.90;99.90
51035;DHT22;37062;52.546;13.230;2022-07-17T01:20:39;14.90;99.90
51035;DHT22;37062;52.546;13.230;2022-07-17T01:23:08;14.80;99.90
51035;DHT22;37062;52.546;13.230;2022-07-17T01:25:36;14.80;99.90
51035;DHT22;37062;52.546;13.230;2022-07-17T01:28:03;14.80;99.90
51035;DHT22;37062;52.546;13.230;2022-07-17T01:30:31;14.80;99.90
51035;DHT22;37062;52.546;13.230;2022-07-17T01:32:58;14.70;99.90
51035;DHT22;37062;52.546;13.230;2022-07-17T01:35:25;14.70;99.90
51035;DHT22;37062;52.546;13.230;2022-07-17T01:37:53;14.70;99.90
51035;DHT22;37062;52.546;13.230;2022-07-17T01:40:21;14.70;99.90
51035;DHT22;37062;52.546;13.230;2022-07-17T01:42:49;14.60;99.90
51035;DHT22;37062;52.546;13.230;2022-07-17T01:45:18;14.60;99.90
51035;DHT22;37062;52.546;13.230;2022-07-17T01:47:46;14.60;99.90
51035;DHT22;37062;52.546;13.230;2022-07-17T01:50:14;14.50;99.90
51035;DHT22;37062;52.546;13.230;2022-07-17T01:52:43;14.50;99.90
51035;DHT22;37062;52.546;13.230;2022-07-17T01:55:12;14.40;99.90
51035;DHT22;37062;52.546;13.230;2022-07-17T01:57:42;14.40;99.90
51035;DHT22;37062;52.546;13.230;2022-07-17T02:00:11;14.40;99.90
51035;DHT22;37062;52.546;13.230;2022-07-17T02:02:40;14.40;99.90
51035;DHT22;37062;52.546;13.230;2022-07-17T02:05:07;14.30;99.90
51035;DHT22;37062;52.546;13.230;2022-07-17T02:07:35;14.30;99.90
51035;DHT22;37062;52.546;13.230;2022-07-17T02:10:06;14.30;99.90
51035;DHT22;37062;52.546;13.230;2022-07-17T02:12:34;14.20;99.90
51035;DHT22;37062;52.546;13.230;2022-07-17T02:15:03;14.20;99.90
51035;DHT22;37062;52.546;13.230;2022-07-17T02:17:30;14.20;99.90
51035;DHT22;37062;52.546;13.230;2022-07-17T02:19:57;14.10;99.90
51035;DHT22;37062;52.546;13.230;2022-07-17T02:22:24;14.10;99.90
51035;DHT22;37062;52.546;13.230;2022-07-17T02:24:51;14.10;99.90
51035;DHT22;37062;52.546;13.230;2022-07-17T02:27:18;14.00;99.90
51035;DHT22;37062;52.546;13.230;2022-07-17T02:29:45;14.00;99.90
51035;DHT22;37062;52.546;13.230;2022-07-17T02:32:13;14.00;99.90
51035;DHT22;37062;52.546;13.230;2022-07-17T02:34:40;14.00;99.90
51035;DHT22;37062;52.546;13.230;2022-07-17T02:37:07;13.90;99.90
51035;DHT22;37062;52.546;13.230;2022-07-17T02:39:34;13.80;99.90
51035;DHT22;37062;52.546;13.230;2022-07-17T02:42:01;13.80;99.90
51035;DHT22;37062;52.546;13.230;2022-07-17T02:44:28;13.80;99.90
51035;DHT22;37062;52.546;13.230;2022-07-17T02:46:54;13.80;99.90
51035;DHT22;37062;52.546;13.230;2022-07-17T02:49:23;13.70;99.90
51035;DHT22;37062;52.546;13.230;2022-07-17T02:51:50;13.70;99.90
51035;DHT22;37062;52.546;13.230;2022-07-17T02:54:17;13.70;99.90
51035;DHT22;37062;52.546;13.230;2022-07-17T02:56:44;13.70;99.90
51035;DHT22;37062;52.546;13.230;2022-07-17T02:59:11;13.70;99.90
51035;DHT22;37062;52.546;13.230;2022-07-17T03:01:38;13.70;99.90
51035;DHT22;37062;52.546;13.230;2022-07-17T03:04:05;13.60;99.90
51035;DHT22;37062;52.546;13.230;2022-07-17T03:06:33;13.60;99.90
51035;DHT22;37062;52.546;13.230;2022-07-17T03:09:00;13.50;99.90
51035;DHT22;37062;52.546;13.230;2022-07-17T03:11:27;13.50;99.90
51035;DHT22;37062;52.546;13.230;2022-07-17T03:13:54;13.50;99.90
51035;DHT22;37062;52.546;13.230;2022-07-17T03:16:21;13.50;99.90
51035;DHT22;37062;52.546;13.230;2022-07-17T03:18:48;13.50;99.90
51035;DHT22;37062;52.546;13.230;2022-07-17T03:21:15;13.50;99.90
51035;DHT22;37062;52.546;13.230;2022-07-17T03:23:43;13.50;99.90
51035;DHT22;37062;52.546;13.230;2022-07-17T03:26:10;13.50;99.90
51035;DHT22;37062;52.546;13.230;2022-07-17T03:28:37;13.60;99.90
51035;DHT22;37062;52.546;13.230;2022-07-17T03:31:04;13.60;99.90
51035;DHT22;37062;52.546;13.230;2022-07-17T03:33:31;13.60;99.90
51035;DHT22;37062;52.546;13.230;2022-07-17T03:35:58;13.60;99.90
51035;DHT22;37062;52.546;13.230;2022-07-17T03:38:25;13.70;99.90
51035;DHT22;37062;52.546;13.230;2022-07-17T03:40:53;13.70;99.90
51035;DHT22;37062;52.546;13.230;2022-07-17T03:43:20;13.70;99.90
51035;DHT22;37062;52.546;13.230;2022-07-17T03:45:47;13.70;99.90
51035;DHT22;37062;52.546;13.230;2022-07-17T03:48:14;13.70;99.90
51035;DHT22;37062;52.546;13.230;2022-07-17T03:50:41;13.70;99.90
51035;DHT22;37062;52.546;13.230;2022-07-17T03:53:08;13.70;99.90
51035;DHT22;37062;52.546;13.230;2022-07-17T03:55:35;13.80;99.90
51035;DHT22;37062;52.546;13.230;2022-07-17T03:58:04;14.30;99.90
51035;DHT22;37062;52.546;13.230;2022-07-17T04:00:31;15.30;99.90
51035;DHT22;37062;52.546;13.230;2022-07-17T04:02:58;16.30;99.90
51035;DHT22;37062;52.546;13.230;2022-07-17T04:05:24;17.20;99.90
51035;DHT22;37062;52.546;13.230;2022-07-17T04:07:51;17.80;99.90
51035;DHT22;37062;52.546;13.230;2022-07-17T04:10:18;18.50;99.90
51035;DHT22;37062;52.546;13.230;2022-07-17T04:12:45;19.10;99.90
51035;DHT22;37062;52.546;13.230;2022-07-17T04:15:14;19.60;99.90
51035;DHT22;37062;52.546;13.230;2022-07-17T04:18:02;20.00;99.90
51035;DHT22;37062;52.546;13.230;2022-07-17T04:20:29;20.40;99.90
51035;DHT22;37062;52.546;13.230;2022-07-17T04:22:56;20.80;99.90
51035;DHT22;37062;52.546;13.230;2022-07-17T04:25:23;21.20;99.90
51035;DHT22;37062;52.546;13.230;2022-07-17T04:27:50;21.50;99.90
51035;DHT22;37062;52.546;13.230;2022-07-17T04:30:18;21.50;99.90
51035;DHT22;37062;52.546;13.230;2022-07-17T04:32:45;21.50;99.90
51035;DHT22;37062;52.546;13.230;2022-07-17T04:35:12;21.70;99.90
51035;DHT22;37062;52.546;13.230;2022-07-17T04:37:39;21.60;99.90
51035;DHT22;37062;52.546;13.230;2022-07-17T04:40:07;21.10;99.90
51035;DHT22;37062;52.546;13.230;2022-07-17T04:42:34;21.10;99.90
51035;DHT22;37062;52.546;13.230;2022-07-17T04:45:01;21.20;99.90
51035;DHT22;37062;52.546;13.230;2022-07-17T04:47:30;21.20;99.90
51035;DHT22;37062;52.546;13.230;2022-07-17T04:49:57;21.20;99.90
51035;DHT22;37062;52.546;13.230;2022-07-17T04:52:24;21.20;99.90
51035;DHT22;37062;52.546;13.230;2022-07-17T04:54:51;20.80;99.90
51035;DHT22;37062;52.546;13.230;2022-07-17T04:57:18;20.30;99.90
51035;DHT22;37062;52.546;13.230;2022-07-17T04:59:44;19.80;99.90
51035;DHT22;37062;52.546;13.230;2022-07-17T05:02:12;19.40;99.90
51035;DHT22;37062;52.546;13.230;2022-07-17T05:04:40;19.00;99.90
51035;DHT22;37062;52.546;13.230;2022-07-17T05:07:07;18.80;99.90
51035;DHT22;37062;52.546;13.230;2022-07-17T05:09:34;18.80;99.90
51035;DHT22;37062;52.546;13.230;2022-07-17T05:12:01;19.20;99.90
51035;DHT22;37062;52.546;13.230;2022-07-17T05:14:28;19.70;99.90
51035;DHT22;37062;52.546;13.230;2022-07-17T05:16:55;20.20;99.90
51035;DHT22;37062;52.546;13.230;2022-07-17T05:19:22;20.60;99.90
51035;DHT22;37062;52.546;13.230;2022-07-17T05:21:51;20.90;99.90
51035;DHT22;37062;52.546;13.230;2022-07-17T05:24:18;21.20;99.90
51035;DHT22;37062;52.546;13.230;2022-07-17T05:26:45;21.00;99.90
51035;DHT22;37062;52.546;13.230;2022-07-17T05:29:12;20.70;99.90
51035;DHT22;37062;52.546;13.230;2022-07-17T05:31:39;20.20;99.90
51035;DHT22;37062;52.546;13.230;2022-07-17T05:34:06;20.00;99.90
51035;DHT22;37062;52.546;13.230;2022-07-17T05:36:32;20.00;99.90
51035;DHT22;37062;52.546;13.230;2022-07-17T05:39:01;20.10;99.90
51035;DHT22;37062;52.546;13.230;2022-07-17T05:41:28;20.20;99.90
51035;DHT22;37062;52.546;13.230;2022-07-17T05:43:55;20.30;99.90
51035;DHT22;37062;52.546;13.230;2022-07-17T05:46:22;20.30;99.90
51035;DHT22;37062;52.546;13.230;2022-07-17T05:48:49;20.50;99.90
51035;DHT22;37062;52.546;13.230;2022-07-17T05:51:16;20.80;99.90
51035;DHT22;37062;52.546;13.230;2022-07-17T05:53:43;20.90;99.90
51035;DHT22;37062;52.546;13.230;2022-07-17T05:56:11;20.90;99.90
51035;DHT22;37062;52.546;13.230;2022-07-17T05:58:38;20.70;99.90
51035;DHT22;37062;52.546;13.230;2022-07-17T06:01:05;20.60;99.90
51035;DHT22;37062;52.546;13.230;2022-07-17T06:03:32;20.50;99.90
51035;DHT22;37062;52.546;13.230;2022-07-17T06:05:59;20.40;99.90
51035;DHT22;37062;52.546;13.230;2022-07-17T06:08:30;20.30;99.90
51035;DHT22;37062;52.546;13.230;2022-07-17T06:10:57;20.40;99.90
51035;DHT22;37062;52.546;13.230;2022-07-17T06:13:25;20.70;99.90
51035;DHT22;37062;52.546;13.230;2022-07-17T06:15:52;20.90;99.90
51035;DHT22;37062;52.546;13.230;2022-07-17T06:18:21;21.20;99.90
51035;DHT22;37062;52.546;13.230;2022-07-17T06:20:48;21.30;99.90
51035;DHT22;37062;52.546;13.230;2022-07-17T06:23:15;21.40;99.90
51035;DHT22;37062;52.546;13.230;2022-07-17T06:25:42;21.50;99.90
51035;DHT22;37062;52.546;13.230;2022-07-17T06:28:09;21.50;99.90
51035;DHT22;37062;52.546;13.230;2022-07-17T06:30:37;21.40;99.90
51035;DHT22;37062;52.546;13.230;2022-07-17T06:33:05;21.40;99.90
51035;DHT22;37062;52.546;13.230;2022-07-17T06:35:32;21.40;99.90
51035;DHT22;37062;52.546;13.230;2022-07-17T06:37:59;21.30;99.90
51035;DHT22;37062;52.546;13.230;2022-07-17T06:40:27;21.30;99.90
51035;DHT22;37062;52.546;13.230;2022-07-17T06:42:54;21.30;99.90
51035;DHT22;37062;52.546;13.230;2022-07-17T06:45:21;21.20;99.90
51035;DHT22;37062;52.546;13.230;2022-07-17T06:47:49;21.20;99.90
51035;DHT22;37062;52.546;13.230;2022-07-17T06:50:16;21.10;99.90
51035;DHT22;37062;52.546;13.230;2022-07-17T06:52:43;21.00;99.90
51035;DHT22;37062;52.546;13.230;2022-07-17T06:55:10;20.80;99.90
51035;DHT22;37062;52.546;13.230;2022-07-17T06:57:37;20.60;99.90
51035;DHT22;37062;52.546;13.230;2022-07-17T07:00:05;20.50;99.90
51035;DHT22;37062;52.546;13.230;2022-07-17T07:02:34;20.50;99.90
51035;DHT22;37062;52.546;13.230;2022-07-17T07:05:03;20.50;99.90
51035;DHT22;37062;52.546;13.230;2022-07-17T07:07:30;20.40;99.90
51035;DHT22;37062;52.546;13.230;2022-07-17T07:09:57;20.50;99.90
51035;DHT22;37062;52.546;13.230;2022-07-17T07:12:24;20.50;99.90
51035;DHT22;37062;52.546;13.230;2022-07-17T07:14:51;20.50;99.90
51035;DHT22;37062;52.546;13.230;2022-07-17T07:17:18;20.40;99.90
51035;DHT22;37062;52.546;13.230;2022-07-17T07:19:46;20.40;99.90
51035;DHT22;37062;52.546;13.230;2022-07-17T07:22:14;20.30;99.90
51035;DHT22;37062;52.546;13.230;2022-07-17T07:24:41;20.30;99.90
51035;DHT22;37062;52.546;13.230;2022-07-17T07:27:08;20.40;99.90
51035;DHT22;37062;52.546;13.230;2022-07-17T07:29:35;20.60;99.90
51035;DHT22;37062;52.546;13.230;2022-07-17T07:32:02;20.90;99.90
51035;DHT22;37062;52.546;13.230;2022-07-17T07:34:29;21.20;99.90
51035;DHT22;37062;52.546;13.230;2022-07-17T07:36:56;21.30;99.90
51035;DHT22;37062;52.546;13.230;2022-07-17T07:39:25;21.40;99.90
51035;DHT22;37062;52.546;13.230;2022-07-17T07:41:52;21.30;99.90
51035;DHT22;37062;52.546;13.230;2022-07-17T07:44:19;21.10;99.90
51035;DHT22;37062;52.546;13.230;2022-07-17T07:46:46;21.00;99.90
51035;DHT22;37062;52.546;13.230;2022-07-17T07:49:13;20.70;99.90
51035;DHT22;37062;52.546;13.230;2022-07-17T07:51:40;20.50;99.90
51035;DHT22;37062;52.546;13.230;2022-07-17T07:54:07;20.30;99.90
51035;DHT22;37062;52.546;13.230;2022-07-17T07:56:35;20.20;99.90
51035;DHT22;37062;52.546;13.230;2022-07-17T07:59:02;20.30;99.90
51035;DHT22;37062;52.546;13.230;2022-07-17T08:01:30;20.40;99.90
51035;DHT22;37062;52.546;13.230;2022-07-17T08:03:56;20.50;99.90
51035;DHT22;37062;52.546;13.230;2022-07-17T08:06:23;20.80;99.90
51035;DHT22;37062;52.546;13.230;2022-07-17T08:08:50;20.90;99.90
51035;DHT22;37062;52.546;13.230;2022-07-17T08:11:17;21.00;99.90
51035;DHT22;37062;52.546;13.230;2022-07-17T08:13:46;21.30;99.90
51035;DHT22;37062;52.546;13.230;2022-07-17T08:16:12;21.70;99.90
51035;DHT22;37062;52.546;13.230;2022-07-17T08:18:39;21.90;99.90
51035;DHT22;37062;52.546;13.230;2022-07-17T08:21:06;22.20;99.90
51035;DHT22;37062;52.546;13.230;2022-07-17T08:23:33;22.20;99.90
51035;DHT22;37062;52.546;13.230;2022-07-17T08:26:03;22.20;99.90
51035;DHT22;37062;52.546;13.230;2022-07-17T08:28:30;22.50;99.90
51035;DHT22;37062;52.546;13.230;2022-07-17T08:30:59;23.30;99.90
51035;DHT22;37062;52.546;13.230;2022-07-17T08:33:29;23.80;99.90
51035;DHT22;37062;52.546;13.230;2022-07-17T08:35:56;23.50;99.90
51035;DHT22;37062;52.546;13.230;2022-07-17T08:38:22;23.40;99.90
51035;DHT22;37062;52.546;13.230;2022-07-17T08:40:50;23.60;99.90
51035;DHT22;37062;52.546;13.230;2022-07-17T08:43:20;23.60;99.90
51035;DHT22;37062;52.546;13.230;2022-07-17T08:45:48;23.40;99.90
51035;DHT22;37062;52.546;13.230;2022-07-17T08:48:17;23.30;99.90
51035;DHT22;37062;52.546;13.230;2022-07-17T08:50:46;23.30;99.90
51035;DHT22;37062;52.546;13.230;2022-07-17T08:53:13;23.30;99.90
51035;DHT22;37062;52.546;13.230;2022-07-17T08:55:40;23.30;99.90
51035;DHT22;37062;52.546;13.230;2022-07-17T08:58:07;23.30;99.90
51035;DHT22;37062;52.546;13.230;2022-07-17T09:00:34;23.30;99.90
51035;DHT22;37062;52.546;13.230;2022-07-17T09:03:05;23.20;99.90
51035;DHT22;37062;52.546;13.230;2022-07-17T09:05:35;23.40;99.90
51035;DHT22;37062;52.546;13.230;2022-07-17T09:08:04;23.90;99.90
51035;DHT22;37062;52.546;13.230;2022-07-17T09:10:34;23.90;99.90
51035;DHT22;37062;52.546;13.230;2022-07-17T09:13:12;23.70;99.90
51035;DHT22;37062;52.546;13.230;2022-07-17T09:15:39;23.20;99.90
51035;DHT22;37062;52.546;13.230;2022-07-17T09:18:06;23.00;99.90
51035;DHT22;37062;52.546;13.230;2022-07-17T09:20:34;22.70;99.90
51035;DHT22;37062;52.546;13.230;2022-07-17T09:23:05;22.60;99.90
51035;DHT22;37062;52.546;13.230;2022-07-17T09:25:36;22.40;99.90
51035;DHT22;37062;52.546;13.230;2022-07-17T09:28:05;22.30;99.90
51035;DHT22;37062;52.546;13.230;2022-07-17T09:30:34;22.40;99.90
51035;DHT22;37062;52.546;13.230;2022-07-17T09:33:05;22.40;99.90
51035;DHT22;37062;52.546;13.230;2022-07-17T09:35:34;22.40;99.90
51035;DHT22;37062;52.546;13.230;2022-07-17T09:38:01;22.20;99.90
51035;DHT22;37062;52.546;13.230;2022-07-17T09:40:28;22.10;99.90
51035;DHT22;37062;52.546;13.230;2022-07-17T09:43:12;22.00;99.90
51035;DHT22;37062;52.546;13.230;2022-07-17T09:45:39;22.00;99.90
51035;DHT22;37062;52.546;13.230;2022-07-17T09:48:08;22.00;99.90
51035;DHT22;37062;52.546;13.230;2022-07-17T09:50:37;22.10;99.90
51035;DHT22;37062;52.546;13.230;2022-07-17T09:53:05;22.40;99.90
51035;DHT22;37062;52.546;13.230;2022-07-17T09:55:34;22.70;99.90
51035;DHT22;37062;52.546;13.230;2022-07-17T09:58:02;23.00;99.90
51035;DHT22;37062;52.546;13.230;2022-07-17T10:00:30;23.30;99.90
51035;DHT22;37062;52.546;13.230;2022-07-17T10:02:57;23.50;99.90
51035;DHT22;37062;52.546;13.230;2022-07-17T10:05:24;24.10;99.90
51035;DHT22;37062;52.546;13.230;2022-07-17T10:07:53;24.60;99.90
51035;DHT22;37062;52.546;13.230;2022-07-17T10:10:20;24.80;99.90
51035;DHT22;37062;52.546;13.230;2022-07-17T10:12:48;25.00;99.90
51035;DHT22;37062;52.546;13.230;2022-07-17T10:15:16;25.20;99.90
51035;DHT22;37062;52.546;13.230;2022-07-17T10:17:43;25.10;99.90
51035;DHT22;37062;52.546;13.230;2022-07-17T10:20:10;24.90;99.90
51035;DHT22;37062;52.546;13.230;2022-07-17T10:22:43;24.80;99.90
51035;DHT22;37062;52.546;13.230;2022-07-17T10:25:15;24.60;99.90
51035;DHT22;37062;52.546;13.230;2022-07-17T10:27:53;24.50;99.90
51035;DHT22;37062;52.546;13.230;2022-07-17T10:30:24;24.20;99.90
51035;DHT22;37062;52.546;13.230;2022-07-17T10:32:53;24.20;99.90
51035;DHT22;37062;52.546;13.230;2022-07-17T10:35:21;24.20;99.90
51035;DHT22;37062;52.546;13.230;2022-07-17T10:37:48;24.30;99.90
51035;DHT22;37062;52.546;13.230;2022-07-17T10:40:18;24.30;99.90
51035;DHT22;37062;52.546;13.230;2022-07-17T10:42:56;24.20;99.90
51035;DHT22;37062;52.546;13.230;2022-07-17T10:45:27;24.10;99.90
51035;DHT22;37062;52.546;13.230;2022-07-17T10:47:56;24.00;99.90
51035;DHT22;37062;52.546;13.230;2022-07-17T10:50:26;23.80;99.90
51035;DHT22;37062;52.546;13.230;2022-07-17T10:53:08;23.70;99.90
51035;DHT22;37062;52.546;13.230;2022-07-17T10:55:39;23.70;99.90
51035;DHT22;37062;52.546;13.230;2022-07-17T10:58:21;23.70;99.90
51035;DHT22;37062;52.546;13.230;2022-07-17T11:00:59;23.50;99.90
51035;DHT22;37062;52.546;13.230;2022-07-17T11:03:31;23.30;99.90
51035;DHT22;37062;52.546;13.230;2022-07-17T11:06:12;23.20;99.90
51035;DHT22;37062;52.546;13.230;2022-07-17T11:08:43;23.10;99.90
51035;DHT22;37062;52.546;13.230;2022-07-17T11:11:12;23.10;99.90
51035;DHT22;37062;52.546;13.230;2022-07-17T11:13:39;23.10;99.90
51035;DHT22;37062;52.546;13.230;2022-07-17T11:16:06;23.10;99.90
51035;DHT22;37062;52.546;13.230;2022-07-17T11:18:34;23.20;99.90
51035;DHT22;37062;52.546;13.230;2022-07-17T11:21:05;23.30;99.90
51035;DHT22;37062;52.546;13.230;2022-07-17T11:23:33;23.40;99.90
51035;DHT22;37062;52.546;13.230;2022-07-17T11:26:05;23.50;99.90
51035;DHT22;37062;52.546;13.230;2022-07-17T11:28:38;23.50;99.90
51035;DHT22;37062;52.546;13.230;2022-07-17T11:31:17;23.60;99.90
51035;DHT22;37062;52.546;13.230;2022-07-17T11:33:49;23.60;99.90
51035;DHT22;37062;52.546;13.230;2022-07-17T11:36:25;23.70;99.90
51035;DHT22;37062;52.546;13.230;2022-07-17T11:38:53;23.60;99.90
51035;DHT22;37062;52.546;13.230;2022-07-17T11:41:20;23.40;99.90
51035;DHT22;37062;52.546;13.230;2022-07-17T11:43:48;23.30;99.90
51035;DHT22;37062;52.546;13.230;2022-07-17T11:46:15;23.20;99.90
51035;DHT22;37062;52.546;13.230;2022-07-17T11:48:44;23.10;99.90
51035;DHT22;37062;52.546;13.230;2022-07-17T11:51:11;23.20;99.90
51035;DHT22;37062;52.546;13.230;2022-07-17T11:53:39;23.20;99.90
51035;DHT22;37062;52.546;13.230;2022-07-17T11:56:07;23.30;99.90
51035;DHT22;37062;52.546;13.230;2022-07-17T11:58:43;23.40;99.90
51035;DHT22;37062;52.546;13.230;2022-07-17T12:01:12;23.40;99.90
51035;DHT22;37062;52.546;13.230;2022-07-17T12:03:39;23.50;99.90
51035;DHT22;37062;52.546;13.230;2022-07-17T12:06:07;23.40;99.90
51035;DHT22;37062;52.546;13.230;2022-07-17T12:08:34;23.10;99.90
51035;DHT22;37062;52.546;13.230;2022-07-17T12:11:06;22.90;99.90
51035;DHT22;37062;52.546;13.230;2022-07-17T12:13:45;23.00;99.90
51035;DHT22;37062;52.546;13.230;2022-07-17T12:16:29;23.20;99.90
51035;DHT22;37062;52.546;13.230;2022-07-17T12:19:08;23.20;99.90
51035;DHT22;37062;52.546;13.230;2022-07-17T12:21:53;23.30;99.90
51035;DHT22;37062;52.546;13.230;2022-07-17T12:24:26;23.30;99.90
51035;DHT22;37062;52.546;13.230;2022-07-17T12:26:54;23.40;99.90
51035;DHT22;37062;52.546;13.230;2022-07-17T12:29:22;23.40;99.90
51035;DHT22;37062;52.546;13.230;2022-07-17T12:32:02;23.50;99.90
51035;DHT22;37062;52.546;13.230;2022-07-17T12:34:29;23.60;99.90
51035;DHT22;37062;52.546;13.230;2022-07-17T12:36:56;23.50;99.90
51035;DHT22;37062;52.546;13.230;2022-07-17T12:39:23;23.50;99.90
51035;DHT22;37062;52.546;13.230;2022-07-17T12:41:50;23.60;99.90
51035;DHT22;37062;52.546;13.230;2022-07-17T12:44:17;23.60;99.90
51035;DHT22;37062;52.546;13.230;2022-07-17T12:46:44;23.50;99.90
51035;DHT22;37062;52.546;13.230;2022-07-17T12:49:12;23.60;99.90
51035;DHT22;37062;52.546;13.230;2022-07-17T12:51:39;23.70;99.90
51035;DHT22;37062;52.546;13.230;2022-07-17T12:54:06;23.70;99.90
51035;DHT22;37062;52.546;13.230;2022-07-17T12:56:33;23.90;99.90
51035;DHT22;37062;52.546;13.230;2022-07-17T12:58:59;24.00;99.90
51035;DHT22;37062;52.546;13.230;2022-07-17T13:01:26;24.10;99.90
51035;DHT22;37062;52.546;13.230;2022-07-17T13:03:54;24.10;99.90
51035;DHT22;37062;52.546;13.230;2022-07-17T13:06:23;24.10;99.90
51035;DHT22;37062;52.546;13.230;2022-07-17T13:08:50;24.10;99.90
51035;DHT22;37062;52.546;13.230;2022-07-17T13:11:17;24.10;99.90
51035;DHT22;37062;52.546;13.230;2022-07-17T13:13:44;24.00;99.90
51035;DHT22;37062;52.546;13.230;2022-07-17T13:16:12;24.00;99.90
51035;DHT22;37062;52.546;13.230;2022-07-17T13:18:40;24.10;99.90
51035;DHT22;37062;52.546;13.230;2022-07-17T13:21:07;24.20;99.90
51035;DHT22;37062;52.546;13.230;2022-07-17T13:23:37;24.20;99.90
51035;DHT22;37062;52.546;13.230;2022-07-17T13:26:07;24.30;99.90
51035;DHT22;37062;52.546;13.230;2022-07-17T13:28:34;24.30;99.90
51035;DHT22;37062;52.546;13.230;2022-07-17T13:31:04;24.20;99.90
51035;DHT22;37062;52.546;13.230;2022-07-17T13:33:31;24.20;99.90
51035;DHT22;37062;52.546;13.230;2022-07-17T13:35:58;24.20;99.90
51035;DHT22;37062;52.546;13.230;2022-07-17T13:38:25;24.30;99.90
51035;DHT22;37062;52.546;13.230;2022-07-17T13:40:53;24.30;99.90
51035;DHT22;37062;52.546;13.230;2022-07-17T13:43:20;24.40;99.90
51035;DHT22;37062;52.546;13.230;2022-07-17T13:45:48;24.50;99.90
51035;DHT22;37062;52.546;13.230;2022-07-17T13:48:15;24.50;99.90
51035;DHT22;37062;52.546;13.230;2022-07-17T13:50:42;24.40;99.90
51035;DHT22;37062;52.546;13.230;2022-07-17T13:53:10;24.40;99.90
51035;DHT22;37062;52.546;13.230;2022-07-17T13:55:37;24.30;99.90
51035;DHT22;37062;52.546;13.230;2022-07-17T13:58:05;24.30;99.90
51035;DHT22;37062;52.546;13.230;2022-07-17T14:00:33;24.30;99.90
51035;DHT22;37062;52.546;13.230;2022-07-17T14:03:00;24.30;99.90
51035;DHT22;37062;52.546;13.230;2022-07-17T14:05:27;24.30;99.90
51035;DHT22;37062;52.546;13.230;2022-07-17T14:07:54;24.30;99.90
51035;DHT22;37062;52.546;13.230;2022-07-17T14:10:21;24.40;99.90
51035;DHT22;37062;52.546;13.230;2022-07-17T14:12:48;24.50;99.90
51035;DHT22;37062;52.546;13.230;2022-07-17T14:15:17;24.50;99.90
51035;DHT22;37062;52.546;13.230;2022-07-17T14:17:44;24.60;99.90
51035;DHT22;37062;52.546;13.230;2022-07-17T14:20:17;24.60;99.90
51035;DHT22;37062;52.546;13.230;2022-07-17T14:22:44;24.60;99.90
51035;DHT22;37062;52.546;13.230;2022-07-17T14:25:11;24.60;99.90
51035;DHT22;37062;52.546;13.230;2022-07-17T14:27:37;24.70;99.90
51035;DHT22;37062;52.546;13.230;2022-07-17T14:30:06;24.70;99.90
51035;DHT22;37062;52.546;13.230;2022-07-17T14:32:34;24.70;99.90
51035;DHT22;37062;52.546;13.230;2022-07-17T14:35:02;24.70;99.90
51035;DHT22;37062;52.546;13.230;2022-07-17T14:37:28;24.70;99.90
51035;DHT22;37062;52.546;13.230;2022-07-17T14:39:55;24.70;99.90
51035;DHT22;37062;52.546;13.230;2022-07-17T14:42:22;24.70;99.90
51035;DHT22;37062;52.546;13.230;2022-07-17T14:44:49;24.60;99.90
51035;DHT22;37062;52.546;13.230;2022-07-17T14:47:16;24.60;99.90
51035;DHT22;37062;52.546;13.230;2022-07-17T14:49:45;24.60;99.90
51035;DHT22;37062;52.546;13.230;2022-07-17T14:52:12;24.60;99.90
51035;DHT22;37062;52.546;13.230;2022-07-17T14:54:39;24.60;99.90
51035;DHT22;37062;52.546;13.230;2022-07-17T14:57:05;24.70;99.90
51035;DHT22;37062;52.546;13.230;2022-07-17T14:59:32;24.80;99.90
51035;DHT22;37062;52.546;13.230;2022-07-17T15:01:59;24.80;99.90
51035;DHT22;37062;52.546;13.230;2022-07-17T15:04:26;24.80;99.90
51035;DHT22;37062;52.546;13.230;2022-07-17T15:06:55;24.80;99.90
51035;DHT22;37062;52.546;13.230;2022-07-17T15:09:22;24.80;99.90
51035;DHT22;37062;52.546;13.230;2022-07-17T15:11:49;24.80;99.90
51035;DHT22;37062;52.546;13.230;2022-07-17T15:14:16;24.80;99.90
51035;DHT22;37062;52.546;13.230;2022-07-17T15:16:43;24.80;99.90
51035;DHT22;37062;52.546;13.230;2022-07-17T15:19:10;24.80;99.90
51035;DHT22;37062;52.546;13.230;2022-07-17T15:21:37;24.70;99.90